createdAt,value
2022-11-18T00:01:11.400Z,98999.03
2022-11-18T00:03:38.816Z,98997.06
2022-11-18T00:06:06.516Z,99000.25
2022-11-18T00:08:34.068Z,98999.81
2022-11-18T00:11:06.289Z,99010.56
2022-11-18T00:13:51.086Z,99012.53
2022-11-18T00:16:17.668Z,99007.34
2022-11-18T00:18:44.211Z,99010.91
2022-11-18T00:21:12.142Z,99017.25
2022-11-18T00:23:39.681Z,99016.84
2022-11-18T00:26:11.124Z,99018.00
2022-11-18T00:28:37.871Z,99011.25
2022-11-18T00:31:06.514Z,99025.56
2022-11-18T00:33:32.968Z,99018.78
2022-11-18T00:35:59.782Z,99016.72
2022-11-18T00:38:26.823Z,99023.47
2022-11-18T00:41:06.093Z,99021.84
2022-11-18T00:43:33.291Z,99025.06
2022-11-18T00:45:59.785Z,99033.00
2022-11-18T00:48:26.326Z,99022.25
2022-11-18T00:51:06.610Z,99031.41
2022-11-18T00:53:32.971Z,99023.84
2022-11-18T00:55:59.441Z,99033.41
2022-11-18T00:58:26.088Z,99025.06
2022-11-18T01:00:53.167Z,99031.03
2022-11-18T01:03:20.483Z,99035.03
2022-11-18T01:05:47.646Z,99037.47
2022-11-18T01:08:14.793Z,99041.44
2022-11-18T01:10:41.653Z,99038.69
2022-11-18T01:13:19.444Z,99038.28
2022-11-18T01:15:57.447Z,99043.09
2022-11-18T01:18:30.492Z,99031.59
2022-11-18T01:21:01.474Z,99030.84
2022-11-18T01:23:27.890Z,99035.59
2022-11-18T01:25:54.299Z,99041.59
2022-11-18T01:28:23.955Z,99042.00
2022-11-18T01:30:51.116Z,99053.56
2022-11-18T01:33:17.540Z,99045.59
2022-11-18T01:35:44.284Z,99042.44
2022-11-18T01:38:12.159Z,99052.00
2022-11-18T01:40:40.325Z,99056.38
2022-11-18T01:43:13.841Z,99050.00
2022-11-18T01:45:42.147Z,99054.78
2022-11-18T01:48:23.087Z,99055.56
2022-11-18T01:50:54.244Z,99061.13
2022-11-18T01:53:25.537Z,99053.16
2022-11-18T01:55:55.998Z,99064.69
2022-11-18T01:58:27.360Z,99067.44
2022-11-18T02:00:54.546Z,99065.06
2022-11-18T02:03:22.080Z,99066.22
2022-11-18T02:05:50.388Z,99065.81
2022-11-18T02:08:18.936Z,99074.56
2022-11-18T02:10:45.320Z,99077.34
2022-11-18T02:13:13.166Z,99080.50
2022-11-18T02:15:55.604Z,99078.88
2022-11-18T02:18:40.959Z,99081.28
2022-11-18T02:21:25.503Z,99086.03
2022-11-18T02:24:09.653Z,99088.81
2022-11-18T02:26:54.386Z,99087.22
2022-11-18T02:29:32.181Z,99095.59
2022-11-18T02:32:01.824Z,99102.75
2022-11-18T02:34:28.123Z,99101.53
2022-11-18T02:37:02.559Z,99113.47
2022-11-18T02:39:39.347Z,99124.66
2022-11-18T02:42:11.261Z,99123.88
2022-11-18T02:44:40.775Z,99124.69
2022-11-18T02:47:11.374Z,99125.53
2022-11-18T02:49:53.873Z,99128.34
2022-11-18T02:52:22.184Z,99131.16
2022-11-18T02:54:51.121Z,99139.53
2022-11-18T02:57:19.941Z,99135.59
2022-11-18T02:59:46.303Z,99138.03
2022-11-18T03:02:17.315Z,99137.66
2022-11-18T03:04:46.422Z,99139.66
2022-11-18T03:07:29.540Z,99132.88
2022-11-18T03:09:57.865Z,99132.94
2022-11-18T03:12:43.715Z,99131.75
2022-11-18T03:15:26.007Z,99136.56
2022-11-18T03:18:20.030Z,99139.34
2022-11-18T03:21:01.223Z,99139.78
2022-11-18T03:23:43.099Z,99146.16
2022-11-18T03:26:14.110Z,99130.63
2022-11-18T03:28:43.896Z,99142.59
2022-11-18T03:31:21.875Z,99137.06
2022-11-18T03:34:00.095Z,99141.03
2022-11-18T03:36:32.633Z,99153.81
2022-11-18T03:39:01.334Z,99153.03
2022-11-18T03:41:31.914Z,99152.63
2022-11-18T03:44:24.923Z,99153.44
2022-11-18T03:47:02.958Z,99159.03
2022-11-18T03:49:40.564Z,99163.03
2022-11-18T03:52:21.344Z,99168.22
2022-11-18T03:54:51.782Z,99160.25
2022-11-18T03:57:33.468Z,99160.66
2022-11-18T04:00:05.727Z,99166.25
2022-11-18T04:02:32.337Z,99169.06
2022-11-18T04:05:00.602Z,99175.03
2022-11-18T04:07:35.648Z,99170.66
2022-11-18T04:10:11.782Z,99170.66
2022-11-18T04:12:43.666Z,99178.66
2022-11-18T04:15:10.027Z,99175.09
2022-11-18T04:17:36.837Z,99172.75
2022-11-18T04:20:03.639Z,99180.31
2022-11-18T04:22:30.131Z,99177.53
2022-11-18T04:24:56.437Z,99181.50
2022-11-18T04:27:22.735Z,99176.38
2022-11-18T04:29:49.238Z,99186.34
2022-11-18T04:32:15.730Z,99189.13
2022-11-18T04:34:42.035Z,99188.31
2022-11-18T04:37:08.531Z,99196.31
2022-11-18T04:39:34.833Z,99193.53
2022-11-18T04:42:01.374Z,99191.94
2022-11-18T04:44:33.082Z,99193.94
2022-11-18T04:47:01.618Z,99188.78
2022-11-18T04:49:28.482Z,99199.53
2022-11-18T04:51:56.059Z,99202.34
2022-11-18T04:54:22.918Z,99202.72
2022-11-18T04:56:50.140Z,99212.69
2022-11-18T04:59:22.645Z,99217.84
2022-11-18T05:01:49.975Z,99210.28
2022-11-18T05:04:25.073Z,99222.63
2022-11-18T05:06:52.307Z,99215.88
2022-11-18T05:09:19.845Z,99217.84
2022-11-18T05:12:05.060Z,99220.25
2022-11-18T05:14:31.788Z,99223.44
2022-11-18T05:17:00.005Z,99225.03
2022-11-18T05:19:26.675Z,99232.63
2022-11-18T05:21:53.774Z,99227.84
2022-11-18T05:24:20.477Z,99230.22
2022-11-18T05:26:46.807Z,99232.66
2022-11-18T05:29:13.173Z,99241.00
2022-11-18T05:31:39.661Z,99237.81
2022-11-18T05:34:06.092Z,99245.41
2022-11-18T05:36:32.463Z,99260.53
2022-11-18T05:38:59.926Z,99268.91
2022-11-18T05:41:45.075Z,99275.31
2022-11-18T05:44:11.390Z,99276.13
2022-11-18T05:46:37.951Z,99276.91
2022-11-18T05:49:04.362Z,99281.69
2022-11-18T05:51:30.733Z,99282.88
2022-11-18T05:53:57.461Z,99290.06
2022-11-18T05:56:37.092Z,99282.91
2022-11-18T05:59:03.976Z,99284.53
2022-11-18T06:01:43.955Z,99289.72
2022-11-18T06:04:20.094Z,99288.94
2022-11-18T06:06:49.189Z,99296.50
2022-11-18T06:09:20.778Z,99291.34
2022-11-18T06:11:53.063Z,99300.91
2022-11-18T06:14:33.675Z,99311.69
2022-11-18T06:17:06.220Z,99306.94
2022-11-18T06:19:33.174Z,99314.13
2022-11-18T06:22:00.061Z,99313.72
2022-11-18T06:24:26.838Z,99312.13
2022-11-18T06:26:53.781Z,99317.72
2022-11-18T06:29:26.177Z,99316.13
2022-11-18T06:31:53.946Z,99324.09
2022-11-18T06:34:20.237Z,99332.91
2022-11-18T06:36:46.566Z,99332.91
2022-11-18T06:39:12.921Z,99331.72
2022-11-18T06:41:39.225Z,99340.09
2022-11-18T06:44:05.578Z,99334.09
2022-11-18T06:46:51.768Z,99341.28
2022-11-18T06:49:18.317Z,99340.09
2022-11-18T06:51:44.829Z,99342.91
2022-11-18T06:54:11.421Z,99356.47
2022-11-18T06:56:38.021Z,99344.50
2022-11-18T06:59:04.932Z,99358.06
2022-11-18T07:01:34.912Z,99360.84
2022-11-18T07:04:01.909Z,99360.84
2022-11-18T07:06:30.953Z,99370.44
2022-11-18T07:08:59.484Z,99382.41
2022-11-18T07:11:26.299Z,99378.00
2022-11-18T07:13:53.075Z,99389.19
2022-11-18T07:16:24.894Z,99391.97
2022-11-18T07:18:52.618Z,99393.97
2022-11-18T07:21:23.345Z,99395.97
2022-11-18T07:23:49.661Z,99392.78
2022-11-18T07:26:16.553Z,99401.94
2022-11-18T07:28:43.189Z,99403.53
2022-11-18T07:31:12.499Z,99408.31
2022-11-18T07:33:40.655Z,99412.72
2022-11-18T07:36:21.429Z,99409.53
2022-11-18T07:38:48.079Z,99417.94
2022-11-18T07:41:23.554Z,99418.31
2022-11-18T07:43:54.958Z,99424.31
2022-11-18T07:46:27.702Z,99428.31
2022-11-18T07:48:56.069Z,99424.75
2022-11-18T07:51:28.071Z,99429.94
2022-11-18T07:53:54.613Z,99434.75
2022-11-18T07:56:21.280Z,99443.53
2022-11-18T07:58:48.086Z,99439.16
2022-11-18T08:01:20.609Z,99440.75
2022-11-18T08:03:47.657Z,99443.97
2022-11-18T08:06:16.564Z,99455.56
2022-11-18T08:08:43.335Z,99452.78
2022-11-18T08:11:16.296Z,99456.34
2022-11-18T08:13:47.357Z,99457.19
2022-11-18T08:16:16.638Z,99460.78
2022-11-18T08:18:43.015Z,99460.00
2022-11-18T08:21:10.263Z,99463.59
2022-11-18T08:23:41.673Z,99471.19
2022-11-18T08:26:11.871Z,99473.19
2022-11-18T08:28:38.568Z,99471.59
2022-11-18T08:31:16.086Z,99474.78
2022-11-18T08:33:42.714Z,99482.41
2022-11-18T08:36:25.269Z,99483.97
2022-11-18T08:38:51.678Z,99481.19
2022-11-18T08:41:38.727Z,99489.94
2022-11-18T08:44:07.048Z,99489.56
2022-11-18T08:46:33.850Z,99483.97
2022-11-18T08:49:00.224Z,99490.00
2022-11-18T08:51:28.455Z,99489.59
2022-11-18T08:53:55.174Z,99486.81
2022-11-18T08:56:23.528Z,99499.19
2022-11-18T08:58:50.373Z,99500.81
2022-11-18T09:01:17.043Z,99494.84
2022-11-18T09:03:43.925Z,99494.81
2022-11-18T09:06:19.041Z,99506.44
2022-11-18T09:08:46.104Z,99509.63
2022-11-18T09:11:23.950Z,99503.63
2022-11-18T09:16:46.807Z,99514.06
2022-11-18T09:22:02.054Z,99512.06
2022-11-18T09:24:28.664Z,99518.88
2022-11-18T09:26:55.260Z,99527.28
2022-11-18T09:29:26.250Z,99523.66
2022-11-18T09:31:53.788Z,99524.47
2022-11-18T09:34:20.721Z,99522.91
2022-11-18T09:36:47.086Z,99528.09
2022-11-18T09:39:13.647Z,99535.72
2022-11-18T09:41:53.084Z,99533.31
2022-11-18T09:44:48.628Z,99531.72
2022-11-18T09:47:27.840Z,99544.09
2022-11-18T09:49:57.030Z,99545.72
2022-11-18T09:52:36.169Z,99551.34
2022-11-18T09:55:11.892Z,99550.94
2022-11-18T09:57:43.575Z,99551.75
2022-11-18T10:00:22.390Z,99554.16
2022-11-18T10:02:57.598Z,99549.34
2022-11-18T10:05:27.698Z,99555.34
2022-11-18T10:08:09.637Z,99562.56
2022-11-18T10:10:48.484Z,99566.97
2022-11-18T10:13:26.556Z,99564.16
2022-11-18T10:16:05.051Z,99567.34
2022-11-18T10:18:59.858Z,99558.56
2022-11-18T10:21:55.333Z,99567.75
2022-11-18T10:24:25.159Z,99574.56
2022-11-18T10:26:57.041Z,99575.75
2022-11-18T10:29:24.110Z,99580.56
2022-11-18T10:32:11.850Z,99577.75
2022-11-18T10:34:51.607Z,99578.94
2022-11-18T10:38:06.210Z,99584.13
2022-11-18T10:40:26.238Z,99582.13
2022-11-18T10:42:52.625Z,99582.50
2022-11-18T10:45:32.496Z,99587.69
2022-11-18T10:48:27.958Z,99594.53
2022-11-18T10:50:56.059Z,99588.50
2022-11-18T10:53:33.327Z,99593.31
2022-11-18T10:56:15.964Z,99587.28
2022-11-18T10:58:46.464Z,99593.31
2022-11-18T11:01:16.019Z,99587.69
2022-11-18T11:03:44.172Z,99594.91
2022-11-18T11:06:26.802Z,99599.28
2022-11-18T11:08:56.329Z,99580.88
2022-11-18T11:11:30.526Z,99588.91
2022-11-18T11:14:15.708Z,99582.50
2022-11-18T11:16:51.738Z,99581.69
2022-11-18T11:19:22.907Z,99587.66
2022-11-18T11:21:49.226Z,99578.44
2022-11-18T11:24:15.944Z,99590.03
2022-11-18T11:30:06.923Z,99591.19
2022-11-18T11:32:39.105Z,99594.38
2022-11-18T11:35:30.977Z,99602.78
2022-11-18T11:38:31.252Z,99597.56
2022-11-18T11:41:22.195Z,99600.78
2022-11-18T11:44:07.228Z,99607.19
2022-11-18T11:47:10.168Z,99608.41
2022-11-18T11:49:45.791Z,99617.63
2022-11-18T11:52:21.167Z,99608.81
2022-11-18T11:55:04.602Z,99618.09
2022-11-18T11:57:51.325Z,99612.47
2022-11-18T12:00:19.907Z,99622.91
2022-11-18T12:02:57.553Z,99618.09
2022-11-18T12:05:36.510Z,99621.69
2022-11-18T12:08:24.285Z,99624.13
2022-11-18T12:10:59.810Z,99625.34
2022-11-18T12:13:48.326Z,99620.13
2022-11-18T12:16:33.773Z,99618.97
2022-11-18T12:19:07.686Z,99623.34
2022-11-18T12:21:46.146Z,99624.59
2022-11-18T12:24:31.538Z,99628.19
2022-11-18T12:27:06.734Z,99630.59
2022-11-18T12:29:36.281Z,99632.97
2022-11-18T12:32:04.112Z,99636.97
2022-11-18T12:34:42.543Z,99642.59
2022-11-18T12:37:24.239Z,99642.59
2022-11-18T12:39:57.293Z,99638.16
2022-11-18T12:43:01.944Z,99636.97
2022-11-18T12:45:51.953Z,99642.59
2022-11-18T12:48:27.846Z,99646.59
2022-11-18T12:51:18.705Z,99638.19
2022-11-18T12:53:47.594Z,99640.59
2022-11-18T12:56:26.373Z,99648.59
2022-11-18T12:59:02.308Z,99646.63
2022-11-18T13:01:35.388Z,99645.78
2022-11-18T13:04:17.496Z,99643.41
2022-11-18T13:06:44.814Z,99651.81
2022-11-18T13:09:18.933Z,99645.78
2022-11-18T13:11:59.088Z,99646.59
2022-11-18T13:14:54.948Z,99649.38
2022-11-18T13:17:54.366Z,99651.81
2022-11-18T13:20:23.506Z,99653.41
2022-11-18T13:23:20.228Z,99642.19
2022-11-18T13:25:48.829Z,99656.19
2022-11-18T13:28:24.977Z,99653.81
2022-11-18T13:31:00.060Z,99648.59
2022-11-18T13:33:26.512Z,99650.16
2022-11-18T13:35:52.963Z,99664.22
2022-11-18T13:38:27.669Z,99665.00
2022-11-18T13:41:13.884Z,99669.44
2022-11-18T13:43:42.360Z,99668.22
2022-11-18T13:46:17.590Z,99672.22
2022-11-18T13:48:52.078Z,99677.81
2022-11-18T13:51:18.636Z,99680.63
2022-11-18T13:53:45.441Z,99674.63
2022-11-18T13:56:30.288Z,99671.00
2022-11-18T13:59:17.427Z,99678.63
2022-11-18T14:01:46.231Z,99674.63
2022-11-18T14:04:32.061Z,99674.63
2022-11-18T14:07:27.840Z,99679.41
2022-11-18T14:10:01.988Z,99678.22
2022-11-18T14:12:35.954Z,99684.63
2022-11-18T14:15:20.909Z,99683.41
2022-11-18T14:17:56.200Z,99689.84
2022-11-18T14:20:24.745Z,99684.22
2022-11-18T14:22:53.237Z,99693.03
2022-11-18T14:25:26.196Z,99687.81
2022-11-18T14:27:55.928Z,99701.41
2022-11-18T14:30:37.826Z,99706.22
2022-11-18T14:33:24.202Z,99708.19
2022-11-18T14:35:55.572Z,99696.97
2022-11-18T14:41:47.140Z,99702.56
2022-11-18T14:44:13.905Z,99714.16
2022-11-18T14:46:43.473Z,99705.34
2022-11-18T14:49:20.008Z,99710.94
2022-11-18T14:51:46.827Z,99704.53
2022-11-18T14:54:25.221Z,99715.28
2022-11-18T14:56:58.289Z,99721.28
2022-11-18T14:59:24.759Z,99716.81
2022-11-18T15:01:51.528Z,99715.19
2022-11-18T15:04:19.165Z,99710.78
2022-11-18T15:06:46.808Z,99719.19
2022-11-18T15:09:13.569Z,99716.75
2022-11-18T15:11:40.224Z,99719.94
2022-11-18T15:14:06.687Z,99721.91
2022-11-18T15:16:34.407Z,99728.69
2022-11-18T15:19:03.377Z,99733.44
2022-11-18T15:21:29.974Z,99743.81
2022-11-18T15:23:56.417Z,99742.19
2022-11-18T15:26:25.797Z,99750.16
2022-11-18T15:28:54.590Z,99751.72
2022-11-18T15:31:22.732Z,99748.53
2022-11-18T15:33:51.180Z,99754.53
2022-11-18T15:36:20.131Z,99751.69
2022-11-18T15:38:47.492Z,99759.25
2022-11-18T15:41:25.336Z,99767.56
2022-11-18T15:43:53.619Z,99764.78
2022-11-18T15:46:22.052Z,99778.72
2022-11-18T15:48:52.043Z,99773.09
2022-11-18T15:51:19.104Z,99777.84
2022-11-18T15:53:46.998Z,99774.59
2022-11-18T15:56:20.518Z,99770.53
2022-11-18T15:59:01.978Z,99778.03
2022-11-18T16:01:35.190Z,99778.41
2022-11-18T16:04:02.482Z,99780.75
2022-11-18T16:06:28.983Z,99783.88
2022-11-18T16:08:59.540Z,99793.03
2022-11-18T16:11:45.858Z,99797.00
2022-11-18T16:14:13.862Z,99794.16
2022-11-18T16:16:42.313Z,99791.31
2022-11-18T16:19:14.626Z,99797.25
2022-11-18T16:21:46.834Z,99799.63
2022-11-18T16:24:17.064Z,99796.41
2022-11-18T16:26:46.708Z,99802.78
2022-11-18T16:29:16.404Z,99805.56
2022-11-18T16:31:50.906Z,99812.28
2022-11-18T16:34:23.214Z,99822.63
2022-11-18T16:36:52.721Z,99817.44
2022-11-18T16:39:27.684Z,99820.19
2022-11-18T16:42:02.260Z,99822.97
2022-11-18T16:44:33.841Z,99828.13
2022-11-18T16:47:06.519Z,99831.69
2022-11-18T16:49:37.112Z,99839.66
2022-11-18T16:52:03.706Z,99850.75
2022-11-18T16:54:31.905Z,99851.09
2022-11-18T16:56:59.222Z,99856.25
2022-11-18T16:59:29.061Z,99854.97
2022-11-18T17:01:57.609Z,99858.91
2022-11-18T17:04:25.472Z,99862.06
2022-11-18T17:06:53.546Z,99863.63
2022-11-18T17:09:23.076Z,99871.16
2022-11-18T17:11:53.274Z,99874.25
2022-11-18T17:14:20.292Z,99882.56
2022-11-18T17:16:46.979Z,99890.09
2022-11-18T17:19:15.967Z,99890.41
2022-11-18T17:21:43.907Z,99895.94
2022-11-18T17:24:13.030Z,99908.19
2022-11-18T17:26:39.439Z,99926.50
2022-11-18T17:29:06.233Z,99924.44
2022-11-18T17:31:33.456Z,99932.38
2022-11-18T17:34:04.205Z,99922.81
2022-11-18T17:36:30.722Z,99915.25
2022-11-18T17:38:59.419Z,99911.25
2022-11-18T17:41:46.762Z,99917.94
2022-11-18T17:44:15.969Z,99920.59
2022-11-18T17:46:43.334Z,99918.91
2022-11-18T17:49:16.423Z,99916.75
2022-11-18T17:51:42.878Z,99913.06
2022-11-18T17:54:09.842Z,99915.63
2022-11-18T17:56:36.459Z,99917.84
2022-11-18T17:59:03.025Z,99917.31
2022-11-18T18:01:29.727Z,99921.50
2022-11-18T18:03:56.229Z,99913.34
2022-11-18T18:06:25.587Z,99910.00
2022-11-18T18:08:56.403Z,99908.16
2022-11-18T18:11:23.423Z,99902.81
2022-11-18T18:14:08.478Z,99906.63
2022-11-18T18:16:35.047Z,99908.34
2022-11-18T18:19:03.215Z,99912.84
2022-11-18T18:21:29.788Z,99915.50
2022-11-18T18:23:56.470Z,99910.03
2022-11-18T18:26:29.733Z,99918.94
2022-11-18T18:28:58.725Z,99926.66
2022-11-18T18:31:25.371Z,99923.72
2022-11-18T18:33:51.708Z,99923.09
2022-11-18T18:36:18.686Z,99930.91
2022-11-18T18:38:46.245Z,99933.16
2022-11-18T18:41:16.743Z,99935.38
2022-11-18T18:43:43.530Z,99949.22
2022-11-18T18:46:34.100Z,99950.63
2022-11-18T18:49:08.872Z,99955.63
2022-11-18T18:51:37.507Z,99963.16
2022-11-18T18:54:04.264Z,99958.34
2022-11-18T18:56:31.442Z,99958.34
2022-11-18T18:58:58.127Z,99968.88
2022-11-18T19:01:25.653Z,99972.28
2022-11-18T19:03:57.524Z,99975.34
2022-11-18T19:09:17.337Z,99977.56
2022-11-18T19:12:03.236Z,99983.34
2022-11-18T19:14:29.678Z,99983.69
2022-11-18T19:17:02.266Z,99985.56
2022-11-18T19:19:50.319Z,99989.84
2022-11-18T19:22:19.363Z,99990.22
2022-11-18T19:24:50.606Z,99986.97
2022-11-18T19:27:19.570Z,99994.03
2022-11-18T19:29:46.132Z,99999.59
2022-11-18T19:32:12.659Z,100002.38
2022-11-18T19:34:39.271Z,100004.25
2022-11-18T19:37:05.588Z,100007.38
2022-11-18T19:39:33.396Z,100017.56
2022-11-18T19:41:59.931Z,100017.09
2022-11-18T19:44:26.653Z,100026.59
2022-11-18T19:46:53.078Z,100031.56
2022-11-18T19:49:19.860Z,100034.22
2022-11-18T19:51:46.404Z,100033.69
2022-11-18T19:54:12.916Z,100043.84
2022-11-18T19:56:39.243Z,100047.22
2022-11-18T19:59:08.428Z,100046.31
2022-11-18T20:01:36.557Z,100048.50
2022-11-18T20:04:03.098Z,100043.66
2022-11-18T20:06:30.015Z,100049.91
2022-11-18T20:08:57.604Z,100052.56
2022-11-18T20:11:24.608Z,100042.63
2022-11-18T20:13:51.422Z,100046.91
2022-11-18T20:16:20.782Z,100056.25
2022-11-18T20:18:48.788Z,100048.66
2022-11-18T20:21:19.882Z,100059.13
2022-11-18T20:23:47.909Z,100060.66
2022-11-18T20:26:16.905Z,100063.44
2022-11-18T20:28:44.516Z,100061.00
2022-11-18T20:31:15.588Z,100061.69
2022-11-18T20:33:47.152Z,100069.66
2022-11-18T20:36:15.506Z,100073.22
2022-11-18T20:38:42.383Z,100077.16
2022-11-18T20:41:11.367Z,100080.66
2022-11-18T20:43:40.508Z,100087.00
2022-11-18T20:46:08.358Z,100083.75
2022-11-18T20:48:35.590Z,100090.09
2022-11-18T20:51:16.630Z,100077.75
2022-11-18T20:53:43.888Z,100083.28
2022-11-18T20:56:13.382Z,100083.28
2022-11-18T20:58:40.288Z,100087.22
2022-11-18T21:01:14.590Z,100089.53
2022-11-18T21:03:43.557Z,100084.78
2022-11-18T21:06:14.629Z,100086.28
2022-11-18T21:08:43.699Z,100093.00
2022-11-18T21:11:12.485Z,100081.44
2022-11-18T21:13:58.571Z,100092.53
2022-11-18T21:16:26.105Z,100087.66
2022-11-18T21:18:52.552Z,100096.31
2022-11-18T21:21:37.582Z,100094.72
2022-11-18T21:24:04.661Z,100100.94
2022-11-18T21:26:33.122Z,100101.94
2022-11-18T21:29:01.151Z,100104.41
2022-11-18T21:31:28.998Z,100104.41
2022-11-18T21:33:57.453Z,100102.31
2022-11-18T21:36:25.931Z,100107.25
2022-11-18T21:38:52.863Z,100109.56
2022-11-18T21:41:19.737Z,100113.84
2022-11-18T21:46:34.758Z,100115.06
2022-11-18T21:49:02.050Z,100112.16
2022-11-18T21:51:28.691Z,100101.78
2022-11-18T21:53:55.217Z,100105.69
2022-11-18T21:56:25.125Z,100108.81
2022-11-18T21:58:52.566Z,100113.03
2022-11-18T22:01:21.868Z,100109.34
2022-11-18T22:03:55.524Z,100112.78
2022-11-18T22:06:24.454Z,100107.09
2022-11-18T22:08:52.143Z,100107.44
2022-11-18T22:11:20.348Z,100108.91
2022-11-18T22:13:47.167Z,100115.63
2022-11-18T22:16:18.163Z,100110.78
2022-11-18T22:18:53.058Z,100115.47
2022-11-18T22:21:23.226Z,100118.59
2022-11-18T22:23:49.774Z,100106.25
2022-11-18T22:26:19.319Z,100113.25
2022-11-18T22:28:46.352Z,100118.78
2022-11-18T22:31:15.331Z,100116.25
2022-11-18T22:33:42.915Z,100114.63
2022-11-18T22:36:13.554Z,100116.44
2022-11-18T22:38:41.812Z,100118.75
2022-11-18T22:41:30.996Z,100123.78
2022-11-18T22:44:00.384Z,100123.34
2022-11-18T22:46:30.984Z,100124.50
2022-11-18T22:48:58.240Z,100132.31
2022-11-18T22:51:25.768Z,100129.06
2022-11-18T22:54:09.720Z,100133.47
2022-11-18T22:56:40.411Z,100138.66
2022-11-18T22:59:06.789Z,100137.03
2022-11-18T23:01:33.176Z,100142.91
2022-11-18T23:03:59.837Z,100137.25
2022-11-18T23:06:26.225Z,100143.13
2022-11-18T23:08:52.755Z,100140.00
2022-11-18T23:11:38.331Z,100142.31
2022-11-18T23:14:07.407Z,100143.78
2022-11-18T23:16:36.704Z,100150.78
2022-11-18T23:19:05.686Z,100153.09
2022-11-18T23:21:32.070Z,100147.41
2022-11-18T23:23:58.493Z,100148.91
2022-11-18T23:26:25.798Z,100153.47
2022-11-18T23:28:53.030Z,100149.41
2022-11-18T23:31:21.154Z,100169.13
2022-11-18T23:33:47.991Z,100152.53
2022-11-18T23:36:16.926Z,100162.31
2022-11-18T23:38:43.594Z,100161.47
2022-11-18T23:41:12.680Z,100158.25
2022-11-18T23:43:39.990Z,100160.22
2022-11-18T23:46:07.823Z,100167.22
2022-11-18T23:48:36.497Z,100171.13
2022-11-18T23:51:12.316Z,100163.97
2022-11-18T23:53:39.662Z,100161.88
2022-11-18T23:56:12.060Z,100163.69
2022-11-18T23:58:42.132Z,100163.19
